createdAt,value
2023-01-21T00:01:09.337Z,49.50
2023-01-21T00:03:35.720Z,49.24
2023-01-21T00:06:02.126Z,49.29
2023-01-21T00:08:28.451Z,49.22
2023-01-21T00:10:54.776Z,49.30
2023-01-21T00:13:21.266Z,49.30
2023-01-21T00:15:47.644Z,49.28
2023-01-21T00:18:14.002Z,49.19
2023-01-21T00:20:40.344Z,49.14
2023-01-21T00:23:06.695Z,49.25
2023-01-21T00:25:33.043Z,49.58
2023-01-21T00:28:00.174Z,49.48
2023-01-21T00:30:26.657Z,49.44
2023-01-21T00:32:53.007Z,49.67
2023-01-21T00:35:19.360Z,49.80
2023-01-21T00:37:45.712Z,49.67
2023-01-21T00:40:12.216Z,49.61
2023-01-21T00:42:38.541Z,49.54
2023-01-21T00:45:05.041Z,49.62
2023-01-21T00:47:31.424Z,49.69
2023-01-21T00:49:57.742Z,50.29
2023-01-21T00:52:24.077Z,50.11
2023-01-21T00:54:50.410Z,49.77
2023-01-21T00:57:16.722Z,49.85
2023-01-21T00:59:43.240Z,49.98
2023-01-21T01:02:09.568Z,50.19
2023-01-21T01:04:35.891Z,49.96
2023-01-21T01:07:02.225Z,49.93
2023-01-21T01:09:28.549Z,49.86
2023-01-21T01:11:54.887Z,49.81
2023-01-21T01:14:22.187Z,49.71
2023-01-21T01:16:48.843Z,49.76
2023-01-21T01:19:15.362Z,49.65
2023-01-21T01:21:41.694Z,49.80
2023-01-21T01:24:08.020Z,49.70
2023-01-21T01:26:37.248Z,49.77
2023-01-21T01:29:03.971Z,50.26
2023-01-21T01:31:30.363Z,50.07
2023-01-21T01:33:56.789Z,50.06
2023-01-21T01:36:25.844Z,49.89
2023-01-21T01:38:52.417Z,49.93
2023-01-21T01:41:29.380Z,49.81
2023-01-21T01:43:57.343Z,49.89
2023-01-21T01:46:24.338Z,49.89
2023-01-21T01:48:52.508Z,49.89
2023-01-21T01:51:19.217Z,49.86
2023-01-21T01:53:45.606Z,49.69
2023-01-21T01:56:12.019Z,49.68
2023-01-21T01:58:38.334Z,49.67
2023-01-21T02:01:04.706Z,49.36
2023-01-21T02:03:44.696Z,49.41
2023-01-21T02:06:12.067Z,49.92
2023-01-21T02:08:38.386Z,49.69
2023-01-21T02:11:11.277Z,49.80
2023-01-21T02:13:37.610Z,49.97
2023-01-21T02:16:08.815Z,50.03
2023-01-21T02:18:38.598Z,49.88
2023-01-21T02:21:18.338Z,50.05
2023-01-21T02:24:02.745Z,50.03
2023-01-21T02:26:34.412Z,50.05
2023-01-21T02:29:05.670Z,49.87
2023-01-21T02:31:50.695Z,49.99
2023-01-21T02:34:35.509Z,49.94
2023-01-21T02:37:04.567Z,49.72
2023-01-21T02:39:34.998Z,49.95
2023-01-21T02:42:04.267Z,49.89
2023-01-21T02:44:40.487Z,49.90
2023-01-21T02:47:10.623Z,49.99
2023-01-21T02:49:40.473Z,49.93
2023-01-21T02:56:05.313Z,49.92
2023-01-21T02:58:32.618Z,49.91
2023-01-21T03:01:17.767Z,49.73
2023-01-21T03:03:56.046Z,49.82
2023-01-21T03:06:41.376Z,49.70
2023-01-21T03:09:07.650Z,49.66
2023-01-21T03:11:33.988Z,49.68
2023-01-21T03:14:19.881Z,49.58
2023-01-21T03:16:59.134Z,49.71
2023-01-21T03:42:58.723Z,49.74
2023-01-21T03:45:31.375Z,49.66
2023-01-21T03:47:58.718Z,49.66
2023-01-21T03:50:31.335Z,49.66
2023-01-21T03:52:57.667Z,49.72
2023-01-21T03:55:24.025Z,48.99
2023-01-21T03:57:50.415Z,48.91
2023-01-21T04:00:17.272Z,48.28
2023-01-21T04:02:43.855Z,48.20
2023-01-21T04:05:10.229Z,48.96
2023-01-21T04:07:36.594Z,48.95
2023-01-21T04:10:02.926Z,48.62
2023-01-21T04:12:29.317Z,48.94
2023-01-21T04:14:55.631Z,48.73
2023-01-21T04:17:21.975Z,48.60
2023-01-21T04:19:48.346Z,48.99
2023-01-21T04:22:14.735Z,48.91
2023-01-21T04:24:41.060Z,49.25
2023-01-21T04:27:07.669Z,49.58
2023-01-21T04:29:34.015Z,49.30
2023-01-21T04:32:00.416Z,49.62
2023-01-21T04:34:26.754Z,49.88
2023-01-21T04:36:53.061Z,50.69
2023-01-21T04:39:19.394Z,50.33
2023-01-21T04:41:45.707Z,50.89
2023-01-21T04:44:12.040Z,50.93
2023-01-21T04:46:41.452Z,49.21
2023-01-21T04:49:07.805Z,48.37
2023-01-21T04:51:34.143Z,49.04
2023-01-21T04:54:00.487Z,48.68
2023-01-21T04:56:26.814Z,48.59
2023-01-21T04:58:53.125Z,49.02
2023-01-21T05:01:19.437Z,50.49
2023-01-21T05:03:45.781Z,49.76
2023-01-21T05:06:12.097Z,50.83
2023-01-21T05:08:38.447Z,50.97
2023-01-21T05:11:06.929Z,50.98
2023-01-21T05:13:33.317Z,51.04
2023-01-21T05:16:03.010Z,50.96
2023-01-21T05:18:29.465Z,50.95
2023-01-21T05:20:56.919Z,50.93
2023-01-21T05:23:23.256Z,51.07
2023-01-21T05:25:49.701Z,51.01
2023-01-21T05:28:16.037Z,50.95
2023-01-21T05:30:44.520Z,50.72
2023-01-21T05:33:11.058Z,50.88
2023-01-21T05:35:37.402Z,51.07
2023-01-21T05:38:03.723Z,50.80
2023-01-21T05:40:30.061Z,50.72
2023-01-21T05:42:56.405Z,50.77
2023-01-21T05:45:22.725Z,50.91
2023-01-21T05:47:49.153Z,50.68
2023-01-21T05:50:15.789Z,51.06
2023-01-21T05:52:42.340Z,50.79
2023-01-21T05:55:08.697Z,50.72
2023-01-21T05:57:35.027Z,50.44
2023-01-21T06:00:01.383Z,50.78
2023-01-21T06:02:27.785Z,50.91
2023-01-21T06:04:54.192Z,50.85
2023-01-21T06:07:20.498Z,50.51
2023-01-21T06:09:46.823Z,50.68
2023-01-21T06:12:13.138Z,50.68
2023-01-21T06:14:39.467Z,50.57
2023-01-21T06:17:05.783Z,49.85
2023-01-21T06:19:32.113Z,50.23
2023-01-21T06:21:58.435Z,50.06
2023-01-21T06:24:24.966Z,50.34
2023-01-21T06:26:51.992Z,50.48
2023-01-21T06:29:18.311Z,50.50
2023-01-21T06:31:44.726Z,50.23
2023-01-21T06:34:12.605Z,50.62
2023-01-21T06:36:40.765Z,50.95
2023-01-21T06:39:07.104Z,50.89
2023-01-21T06:41:33.417Z,50.80
2023-01-21T06:43:59.751Z,50.85
2023-01-21T06:46:26.110Z,50.68
2023-01-21T06:48:53.725Z,50.75
2023-01-21T06:51:20.131Z,50.60
2023-01-21T06:53:46.483Z,50.50
2023-01-21T06:56:12.843Z,50.45
2023-01-21T06:58:39.187Z,50.41
2023-01-21T07:01:05.523Z,50.33
2023-01-21T07:03:31.853Z,50.44
2023-01-21T07:05:58.172Z,50.40
2023-01-21T07:08:24.523Z,50.58
2023-01-21T07:10:50.861Z,50.36
2023-01-21T07:13:17.198Z,50.71
2023-01-21T07:15:43.553Z,50.19
2023-01-21T07:18:09.903Z,50.28
2023-01-21T07:20:36.227Z,50.19
2023-01-21T07:23:02.552Z,50.40
2023-01-21T07:25:29.075Z,50.56
2023-01-21T07:27:55.458Z,50.62
2023-01-21T07:30:21.779Z,50.79
2023-01-21T07:32:48.112Z,50.57
2023-01-21T07:35:14.612Z,50.35
2023-01-21T07:37:41.279Z,50.33
2023-01-21T07:40:07.919Z,50.31
2023-01-21T07:42:34.235Z,50.33
2023-01-21T07:45:02.822Z,50.24
2023-01-21T07:47:29.246Z,50.48
2023-01-21T07:49:55.599Z,50.90
2023-01-21T07:52:21.918Z,50.62
2023-01-21T07:54:48.239Z,50.93
2023-01-21T07:57:14.569Z,50.87
2023-01-21T07:59:40.908Z,50.96
2023-01-21T08:02:07.313Z,50.84
2023-01-21T08:04:33.696Z,50.63
2023-01-21T08:07:01.857Z,50.60
2023-01-21T08:09:28.191Z,50.56
2023-01-21T08:11:54.529Z,50.60
2023-01-21T08:14:20.872Z,50.52
2023-01-21T08:16:47.181Z,50.43
2023-01-21T08:19:14.164Z,50.45
2023-01-21T08:21:40.571Z,50.35
2023-01-21T08:24:07.038Z,50.45
2023-01-21T08:26:33.364Z,50.09
2023-01-21T08:29:00.160Z,50.37
2023-01-21T08:31:26.511Z,50.24
2023-01-21T08:33:52.877Z,50.31
2023-01-21T08:36:19.204Z,50.17
2023-01-21T08:38:48.395Z,50.46
2023-01-21T08:41:15.049Z,50.42
2023-01-21T08:43:41.433Z,50.34
2023-01-21T08:46:07.828Z,50.27
2023-01-21T08:48:34.256Z,50.40
2023-01-21T08:51:00.711Z,50.12
2023-01-21T08:53:27.078Z,50.33
2023-01-21T08:55:53.401Z,50.16
2023-01-21T08:58:19.730Z,50.25
2023-01-21T09:00:46.184Z,50.30
2023-01-21T09:03:13.691Z,49.96
2023-01-21T09:05:40.017Z,50.17
2023-01-21T09:08:06.329Z,50.24
2023-01-21T09:10:51.784Z,50.37
2023-01-21T09:13:19.908Z,50.45
2023-01-21T09:15:46.229Z,50.40
2023-01-21T09:18:12.563Z,50.41
2023-01-21T09:20:39.682Z,50.27
2023-01-21T09:23:24.568Z,50.18
2023-01-21T09:25:51.705Z,50.15
2023-01-21T09:28:18.239Z,50.47
2023-01-21T09:30:44.650Z,49.98
2023-01-21T09:33:11.385Z,49.34
2023-01-21T09:35:38.189Z,49.38
2023-01-21T09:38:04.510Z,49.53
2023-01-21T09:40:30.854Z,49.51
2023-01-21T09:42:57.223Z,49.57
2023-01-21T09:45:23.556Z,49.64
2023-01-21T09:47:49.893Z,49.65
2023-01-21T09:50:17.350Z,49.66
2023-01-21T09:52:44.140Z,49.75
2023-01-21T09:55:27.683Z,49.71
2023-01-21T09:57:59.714Z,49.58
2023-01-21T10:00:44.906Z,49.77
2023-01-21T10:03:29.556Z,49.92
2023-01-21T10:06:04.987Z,44.95
2023-01-21T10:08:33.023Z,43.57
2023-01-21T10:11:20.274Z,45.10
2023-01-21T10:13:58.239Z,46.22
2023-01-21T10:16:27.534Z,45.79
2023-01-21T10:18:53.906Z,46.30
2023-01-21T10:21:24.047Z,46.89
2023-01-21T10:23:51.361Z,46.79
2023-01-21T10:26:17.849Z,47.51
2023-01-21T10:28:44.642Z,48.84
2023-01-21T10:31:20.976Z,48.30
2023-01-21T10:33:47.503Z,48.40
2023-01-21T10:36:16.664Z,48.40
2023-01-21T10:38:49.572Z,49.29
2023-01-21T10:41:28.799Z,49.60
2023-01-21T10:44:01.647Z,49.58
2023-01-21T10:46:41.100Z,49.35
2023-01-21T10:49:26.322Z,49.29
2023-01-21T10:51:55.798Z,49.40
2023-01-21T10:54:24.753Z,49.07
2023-01-21T10:56:55.891Z,48.99
2023-01-21T10:59:22.680Z,49.10
2023-01-21T11:01:53.300Z,49.03
2023-01-21T11:04:20.377Z,49.45
2023-01-21T11:06:47.238Z,48.34
2023-01-21T11:09:13.977Z,48.07
2023-01-21T11:11:41.563Z,48.03
2023-01-21T11:14:07.885Z,48.17
2023-01-21T11:16:35.098Z,47.89
2023-01-21T11:19:01.951Z,47.97
2023-01-21T11:21:28.265Z,48.79
2023-01-21T11:23:58.138Z,49.17
2023-01-21T11:26:26.455Z,49.17
2023-01-21T11:29:08.828Z,49.00
2023-01-21T11:31:35.615Z,49.08
2023-01-21T11:34:05.818Z,49.21
2023-01-21T11:36:32.142Z,49.33
2023-01-21T11:38:59.875Z,49.20
2023-01-21T11:41:26.193Z,49.62
2023-01-21T11:43:53.242Z,49.54
2023-01-21T11:46:29.854Z,49.68
2023-01-21T11:49:08.418Z,49.69
2023-01-21T11:51:34.897Z,49.74
2023-01-21T11:54:12.185Z,49.59
2023-01-21T11:56:38.506Z,49.84
2023-01-21T11:59:12.173Z,49.67
2023-01-21T12:01:38.490Z,49.72
2023-01-21T12:04:04.901Z,49.35
2023-01-21T12:06:31.288Z,49.74
2023-01-21T12:08:59.551Z,49.62
2023-01-21T12:11:26.676Z,49.57
2023-01-21T12:14:04.916Z,49.42
2023-01-21T12:16:34.691Z,49.73
2023-01-21T12:19:07.697Z,49.45
2023-01-21T12:21:38.899Z,49.44
2023-01-21T12:24:17.384Z,49.77
2023-01-21T12:26:56.491Z,49.76
2023-01-21T12:29:34.916Z,49.52
2023-01-21T12:32:03.040Z,49.73
2023-01-21T12:34:37.129Z,49.66
2023-01-21T12:37:10.189Z,49.65
2023-01-21T12:39:36.618Z,49.61
2023-01-21T12:42:19.799Z,49.44
2023-01-21T12:44:48.736Z,49.62
2023-01-21T12:47:19.199Z,49.59
2023-01-21T12:49:47.922Z,49.60
2023-01-21T12:52:19.231Z,49.64
2023-01-21T12:54:58.977Z,49.46
2023-01-21T12:57:48.531Z,49.71
2023-01-21T13:00:14.946Z,49.45
2023-01-21T13:02:48.496Z,49.66
2023-01-21T13:05:47.418Z,49.51
2023-01-21T13:08:13.719Z,49.64
2023-01-21T13:10:40.876Z,49.45
2023-01-21T13:13:25.894Z,49.56
2023-01-21T13:15:56.501Z,49.70
2023-01-21T13:18:23.622Z,49.71
2023-01-21T13:20:51.550Z,49.64
2023-01-21T13:23:29.803Z,49.62
2023-01-21T13:26:14.640Z,49.64
2023-01-21T13:28:55.590Z,49.85
2023-01-21T13:31:25.599Z,49.70
2023-01-21T13:34:01.533Z,49.65
2023-01-21T13:36:33.767Z,49.67
2023-01-21T13:39:02.597Z,49.65
2023-01-21T13:41:31.426Z,49.66
2023-01-21T13:44:13.049Z,49.71
2023-01-21T13:46:48.421Z,49.63
2023-01-21T13:49:17.646Z,49.74
2023-01-21T13:51:56.476Z,49.56
2023-01-21T13:54:29.057Z,49.63
2023-01-21T13:56:55.326Z,49.47
2023-01-21T13:59:23.535Z,49.63
2023-01-21T14:02:10.134Z,49.63
2023-01-21T14:04:48.307Z,49.42
2023-01-21T14:07:25.408Z,49.69
2023-01-21T14:10:06.337Z,49.71
2023-01-21T14:12:51.452Z,49.55
2023-01-21T14:15:20.011Z,49.66
2023-01-21T14:17:50.364Z,49.49
2023-01-21T14:20:37.763Z,49.56
2023-01-21T14:23:03.994Z,49.64
2023-01-21T14:25:49.821Z,49.53
2023-01-21T14:28:32.321Z,49.54
2023-01-21T14:31:12.514Z,49.52
2023-01-21T14:33:44.150Z,49.47
2023-01-21T14:36:17.990Z,49.50
2023-01-21T14:38:59.279Z,49.52
2023-01-21T14:41:25.601Z,49.62
2023-01-21T14:43:52.114Z,49.55
2023-01-21T14:46:25.721Z,49.40
2023-01-21T14:49:08.223Z,49.44
2023-01-21T14:51:52.751Z,49.55
2023-01-21T14:54:20.581Z,49.50
2023-01-21T14:56:53.294Z,49.48
2023-01-21T14:59:33.550Z,49.62
2023-01-21T15:02:20.282Z,49.42
2023-01-21T15:04:54.368Z,49.31
2023-01-21T15:07:21.664Z,49.42
2023-01-21T15:09:50.049Z,49.31
2023-01-21T15:12:18.604Z,49.31
2023-01-21T15:14:45.955Z,49.41
2023-01-21T15:17:31.000Z,49.37
2023-01-21T15:19:57.863Z,49.41
2023-01-21T15:22:40.702Z,49.42
2023-01-21T15:25:19.987Z,49.45
2023-01-21T15:28:05.391Z,49.24
2023-01-21T15:30:35.210Z,49.37
2023-01-21T15:33:02.052Z,49.23
2023-01-21T15:35:33.186Z,49.44
2023-01-21T15:38:20.442Z,49.17
2023-01-21T15:40:48.241Z,49.24
2023-01-21T15:43:30.525Z,49.35
2023-01-21T15:46:15.648Z,49.30
2023-01-21T15:48:44.631Z,49.28
2023-01-21T15:51:24.213Z,49.33
2023-01-21T15:53:53.459Z,49.35
2023-01-21T15:56:22.999Z,49.27
2023-01-21T15:59:07.951Z,49.16
2023-01-21T16:01:34.732Z,48.28
2023-01-21T16:04:04.063Z,48.83
2023-01-21T16:06:33.384Z,48.02
2023-01-21T16:09:04.826Z,48.12
2023-01-21T16:11:49.858Z,48.30
2023-01-21T16:14:23.015Z,48.26
2023-01-21T16:16:57.782Z,47.90
2023-01-21T16:19:25.439Z,48.34
2023-01-21T16:21:53.081Z,48.57
2023-01-21T16:24:20.743Z,48.40
2023-01-21T16:26:47.071Z,48.37
2023-01-21T16:29:13.888Z,48.07
2023-01-21T16:31:47.031Z,47.96
2023-01-21T16:34:13.508Z,48.00
2023-01-21T16:36:40.099Z,48.04
2023-01-21T16:39:06.813Z,47.79
2023-01-21T16:41:33.157Z,48.09
2023-01-21T16:44:02.989Z,47.63
2023-01-21T16:46:34.533Z,47.42
2023-01-21T16:49:00.960Z,47.40
2023-01-21T16:51:34.035Z,47.25
2023-01-21T16:54:20.473Z,47.54
2023-01-21T16:56:47.761Z,47.74
2023-01-21T16:59:18.040Z,47.58
2023-01-21T17:01:44.426Z,47.90
2023-01-21T17:04:10.856Z,47.93
2023-01-21T17:06:37.225Z,48.01
2023-01-21T17:09:05.646Z,48.15
2023-01-21T17:11:36.907Z,48.29
2023-01-21T17:14:07.483Z,48.71
2023-01-21T17:16:35.226Z,48.71
2023-01-21T17:19:02.961Z,49.11
2023-01-21T17:21:29.212Z,49.26
2023-01-21T17:23:56.586Z,49.32
2023-01-21T17:26:22.861Z,49.42
2023-01-21T17:28:59.660Z,49.99
2023-01-21T17:31:26.185Z,50.17
2023-01-21T17:34:10.628Z,50.15
2023-01-21T17:36:37.676Z,50.19
2023-01-21T17:39:04.214Z,50.26
2023-01-21T17:41:34.470Z,50.48
2023-01-21T17:44:01.402Z,50.20
2023-01-21T17:46:27.805Z,50.03
2023-01-21T17:48:55.104Z,50.14
2023-01-21T17:51:26.012Z,50.25
2023-01-21T17:53:52.980Z,50.31
2023-01-21T17:56:34.523Z,50.14
2023-01-21T17:59:02.639Z,50.12
2023-01-21T18:01:29.182Z,50.09
2023-01-21T18:03:55.740Z,50.09
2023-01-21T18:09:14.358Z,49.99
2023-01-21T18:11:40.677Z,49.76
2023-01-21T18:14:08.465Z,49.52
2023-01-21T18:16:34.806Z,49.65
2023-01-21T18:19:01.167Z,49.68
2023-01-21T18:21:27.502Z,49.15
2023-01-21T18:23:54.171Z,49.54
2023-01-21T18:26:25.280Z,49.62
2023-01-21T18:28:51.624Z,49.58
2023-01-21T18:31:18.041Z,49.79
2023-01-21T18:33:44.479Z,49.83
2023-01-21T18:36:11.202Z,49.69
2023-01-21T18:38:37.962Z,49.93
2023-01-21T18:41:05.621Z,49.72
2023-01-21T18:43:32.036Z,49.67
2023-01-21T18:45:59.345Z,49.64
2023-01-21T18:48:28.778Z,49.67
2023-01-21T18:50:55.161Z,49.42
2023-01-21T18:53:21.568Z,49.56
2023-01-21T18:55:48.583Z,49.38
2023-01-21T18:58:14.981Z,49.46
2023-01-21T19:00:41.340Z,49.37
2023-01-21T19:03:07.758Z,49.41
2023-01-21T19:05:34.788Z,49.43
2023-01-21T19:08:01.333Z,49.35
2023-01-21T19:10:27.655Z,49.16
2023-01-21T19:12:53.981Z,49.45
2023-01-21T19:15:22.027Z,49.33
2023-01-21T19:17:48.365Z,49.47
2023-01-21T19:20:21.876Z,49.20
2023-01-21T19:22:48.270Z,49.24
2023-01-21T19:25:14.620Z,49.09
2023-01-21T19:27:41.912Z,49.22
2023-01-21T19:30:38.478Z,49.32
2023-01-21T19:33:04.823Z,49.46
2023-01-21T19:35:32.117Z,49.55
2023-01-21T19:37:58.472Z,49.23
2023-01-21T19:40:25.832Z,49.24
2023-01-21T19:42:52.221Z,49.18
2023-01-21T19:45:18.546Z,49.53
2023-01-21T19:47:45.475Z,49.36
2023-01-21T19:50:13.303Z,49.47
2023-01-21T19:52:39.655Z,49.33
2023-01-21T19:55:06.549Z,49.34
2023-01-21T19:57:33.103Z,49.21
2023-01-21T19:59:59.668Z,49.15
2023-01-21T20:02:26.063Z,49.13
2023-01-21T20:04:52.384Z,49.28
2023-01-21T20:07:19.034Z,49.34
2023-01-21T20:09:45.625Z,49.30
2023-01-21T20:12:12.779Z,49.30
2023-01-21T20:14:39.103Z,49.25
2023-01-21T20:17:05.444Z,49.28
2023-01-21T20:19:31.772Z,49.25
2023-01-21T20:22:02.456Z,49.44
2023-01-21T20:24:30.372Z,49.18
2023-01-21T20:26:57.156Z,49.33
2023-01-21T20:29:23.503Z,49.26
2023-01-21T20:31:51.798Z,49.55
2023-01-21T20:34:18.217Z,49.50
2023-01-21T20:36:45.479Z,49.23
2023-01-21T20:39:13.086Z,49.27
2023-01-21T20:41:40.833Z,49.14
2023-01-21T20:44:07.162Z,49.34
2023-01-21T20:46:33.515Z,49.41
2023-01-21T20:48:59.865Z,49.43
2023-01-21T20:51:26.187Z,49.33
2023-01-21T20:53:52.511Z,49.35
2023-01-21T20:56:23.094Z,49.40
2023-01-21T20:58:49.416Z,49.63
2023-01-21T21:01:16.121Z,49.45
2023-01-21T21:03:42.460Z,49.30
2023-01-21T21:06:15.095Z,49.22
2023-01-21T21:08:41.429Z,49.32
2023-01-21T21:11:07.944Z,49.25
2023-01-21T21:13:34.278Z,49.36
2023-01-21T21:16:00.594Z,49.24
2023-01-21T21:18:26.931Z,49.21
2023-01-21T21:20:53.247Z,49.29
2023-01-21T21:23:19.583Z,49.27
2023-01-21T21:25:46.247Z,49.34
2023-01-21T21:28:12.995Z,49.29
2023-01-21T21:30:39.358Z,49.48
2023-01-21T21:33:07.566Z,49.29
2023-01-21T21:35:36.968Z,49.37
2023-01-21T21:38:03.781Z,49.40
2023-01-21T21:40:30.201Z,49.33
2023-01-21T21:43:15.448Z,49.39
2023-01-21T21:46:02.046Z,49.32
2023-01-21T21:48:54.450Z,49.36
2023-01-21T21:51:22.453Z,49.41
2023-01-21T21:53:48.997Z,49.28
2023-01-21T21:56:24.060Z,49.42
2023-01-21T21:58:50.386Z,49.37
2023-01-21T22:01:20.471Z,49.41
2023-01-21T22:03:46.968Z,49.31
2023-01-21T22:06:13.284Z,49.36
2023-01-21T22:08:40.412Z,49.35
2023-01-21T22:11:07.799Z,49.22
2023-01-21T22:13:34.853Z,49.17
2023-01-21T22:16:01.164Z,49.41
2023-01-21T22:18:27.791Z,49.47
2023-01-21T22:21:06.133Z,49.54
2023-01-21T22:23:33.117Z,49.44
2023-01-21T22:26:00.647Z,49.51
2023-01-21T22:28:26.974Z,49.55
2023-01-21T22:30:53.528Z,49.51
2023-01-21T22:33:22.131Z,49.44
2023-01-21T22:35:48.528Z,49.53
2023-01-21T22:38:14.878Z,49.51
2023-01-21T22:40:41.213Z,49.40
2023-01-21T22:43:07.570Z,49.34
2023-01-21T22:45:33.961Z,49.29
2023-01-21T22:48:01.188Z,49.37
2023-01-21T22:50:27.638Z,49.42
2023-01-21T22:52:54.011Z,49.35
2023-01-21T22:55:20.342Z,49.39
2023-01-21T22:57:46.696Z,49.38
2023-01-21T23:00:16.099Z,49.42
2023-01-21T23:02:42.463Z,49.43
2023-01-21T23:05:08.869Z,49.54
2023-01-21T23:07:35.238Z,49.36
2023-01-21T23:10:01.561Z,49.46
2023-01-21T23:12:28.712Z,49.27
2023-01-21T23:14:55.082Z,49.50
2023-01-21T23:17:21.421Z,49.29
2023-01-21T23:19:47.947Z,49.36
2023-01-21T23:22:14.267Z,49.21
2023-01-21T23:24:40.593Z,49.29
2023-01-21T23:27:06.950Z,49.42
2023-01-21T23:29:33.273Z,49.50
2023-01-21T23:31:59.749Z,49.42
2023-01-21T23:34:26.152Z,49.37
2023-01-21T23:36:52.499Z,49.51
2023-01-21T23:39:18.903Z,49.41
2023-01-21T23:41:45.239Z,49.53
2023-01-21T23:44:11.606Z,49.49
2023-01-21T23:46:38.843Z,49.37
2023-01-21T23:49:05.162Z,49.46
2023-01-21T23:51:31.500Z,49.31
2023-01-21T23:53:57.910Z,49.42
2023-01-21T23:56:24.456Z,49.44
2023-01-21T23:58:50.785Z,49.51
